sensor_id;sensor_type;location;lat;lon;timestamp;pressure;altitude;pressure_sealevel;temperature;humidity
55317;BME280;41178;48.956;8.130;2023-04-01T00:03:12;98552.06;;;11.74;50.52
55317;BME280;41178;48.956;8.130;2023-04-01T00:08:15;98393.91;;;9.21;54.27
55317;BME280;41178;48.956;8.130;2023-04-01T00:13:17;98518.44;;;10.39;53.00
55317;BME280;41178;48.956;8.130;2023-04-01T00:18:18;98508.88;;;10.18;53.16
55317;BME280;41178;48.956;8.130;2023-04-01T00:23:21;98547.59;;;11.18;51.76
55317;BME280;41178;48.956;8.130;2023-04-01T00:28:22;98543.88;;;11.44;50.61
55317;BME280;41178;48.956;8.130;2023-04-01T00:33:24;98529.75;;;11.30;50.11
55317;BME280;41178;48.956;8.130;2023-04-01T00:38:26;98560.16;;;11.68;49.52
55317;BME280;41178;48.956;8.130;2023-04-01T00:43:27;98534.91;;;11.32;48.90
55317;BME280;41178;48.956;8.130;2023-04-01T00:48:38;98650.75;;;13.07;47.80
55317;BME280;41178;48.956;8.130;2023-04-01T00:53:44;98577.97;;;12.17;48.66
55317;BME280;41178;48.956;8.130;2023-04-01T00:58:49;98561.28;;;12.15;48.61
55317;BME280;41178;48.956;8.130;2023-04-01T01:03:52;98524.59;;;11.54;48.87
55317;BME280;41178;48.956;8.130;2023-04-01T01:09:28;98551.31;;;12.04;48.38
55317;BME280;41178;48.956;8.130;2023-04-01T01:36:03;98457.22;;;10.88;49.55
55317;BME280;41178;48.956;8.130;2023-04-01T01:41:07;98380.81;;;9.71;53.52
55317;BME280;41178;48.956;8.130;2023-04-01T01:46:14;98452.88;;;11.56;50.05
55317;BME280;41178;48.956;8.130;2023-04-01T01:51:21;98434.91;;;10.76;51.79
55317;BME280;41178;48.956;8.130;2023-04-01T01:56:26;98329.78;;;9.41;53.93
55317;BME280;41178;48.956;8.130;2023-04-01T02:01:31;98413.63;;;10.24;53.34
55317;BME280;41178;48.956;8.130;2023-04-01T02:06:37;98415.78;;;10.08;52.72
55317;BME280;41178;48.956;8.130;2023-04-01T02:11:47;98432.28;;;10.62;51.36
55317;BME280;41178;48.956;8.130;2023-04-01T02:22:03;98398.69;;;10.16;50.76
55317;BME280;41178;48.956;8.130;2023-04-01T02:27:05;98323.66;;;9.34;51.68
55317;BME280;41178;48.956;8.130;2023-04-01T02:32:08;98403.50;;;10.32;50.39
55317;BME280;41178;48.956;8.130;2023-04-01T02:37:11;98280.09;;;8.95;51.57
55317;BME280;41178;48.956;8.130;2023-04-01T02:42:14;98383.28;;;9.66;52.18
55317;BME280;41178;48.956;8.130;2023-04-01T02:47:15;98408.53;;;9.77;52.67
55317;BME280;41178;48.956;8.130;2023-04-01T02:52:17;98422.41;;;10.06;51.40
55317;BME280;41178;48.956;8.130;2023-04-01T02:57:19;98442.13;;;10.68;51.10
55317;BME280;41178;48.956;8.130;2023-04-01T03:02:21;98327.06;;;8.96;53.19
55317;BME280;41178;48.956;8.130;2023-04-01T03:07:23;98489.66;;;11.67;49.66
55317;BME280;41178;48.956;8.130;2023-04-01T03:12:25;98207.44;;;8.07;54.97
55317;BME280;41178;48.956;8.130;2023-04-01T03:17:26;98458.97;;;10.76;51.09
55317;BME280;41178;48.956;8.130;2023-04-01T03:22:28;98268.09;;;8.45;53.81
55317;BME280;41178;48.956;8.130;2023-04-01T03:27:30;98417.72;;;9.94;52.66
55317;BME280;41178;48.956;8.130;2023-04-01T03:32:31;98376.41;;;9.45;52.23
55317;BME280;41178;48.956;8.130;2023-04-01T03:37:33;98413.00;;;10.28;51.17
55317;BME280;41178;48.956;8.130;2023-04-01T03:42:35;98416.28;;;9.92;51.96
55317;BME280;41178;48.956;8.130;2023-04-01T03:47:38;98349.63;;;9.07;53.13
55317;BME280;41178;48.956;8.130;2023-04-01T03:52:39;98411.84;;;10.18;51.65
55317;BME280;41178;48.956;8.130;2023-04-01T03:57:41;98424.25;;;9.99;52.72
55317;BME280;41178;48.956;8.130;2023-04-01T04:02:43;98428.81;;;10.62;51.29
55317;BME280;41178;48.956;8.130;2023-04-01T04:07:44;98408.63;;;10.02;52.14
55317;BME280;41178;48.956;8.130;2023-04-01T04:12:46;98434.69;;;10.77;51.42
55317;BME280;41178;48.956;8.130;2023-04-01T04:17:48;98418.25;;;10.42;51.46
55317;BME280;41178;48.956;8.130;2023-04-01T04:22:49;98431.78;;;10.79;51.38
55317;BME280;41178;48.956;8.130;2023-04-01T04:27:51;98442.28;;;10.74;51.52
55317;BME280;41178;48.956;8.130;2023-04-01T04:32:53;98417.34;;;10.80;51.09
55317;BME280;41178;48.956;8.130;2023-04-01T04:37:54;98376.41;;;9.90;51.83
55317;BME280;41178;48.956;8.130;2023-04-01T04:42:56;98279.91;;;8.90;53.54
55317;BME280;41178;48.956;8.130;2023-04-01T04:47:58;98387.34;;;10.46;50.54
55317;BME280;41178;48.956;8.130;2023-04-01T04:53:00;98420.25;;;10.53;51.56
55317;BME280;41178;48.956;8.130;2023-04-01T04:58:01;98393.41;;;10.35;50.80
55317;BME280;41178;48.956;8.130;2023-04-01T05:03:03;98432.91;;;11.15;50.36
55317;BME280;41178;48.956;8.130;2023-04-01T05:08:05;98438.94;;;11.29;49.71
55317;BME280;41178;48.956;8.130;2023-04-01T05:13:07;98414.25;;;10.51;51.04
55317;BME280;41178;48.956;8.130;2023-04-01T05:18:09;98387.13;;;10.47;50.83
55317;BME280;41178;48.956;8.130;2023-04-01T05:23:11;98442.13;;;11.19;49.97
55317;BME280;41178;48.956;8.130;2023-04-01T05:28:14;98379.81;;;10.11;51.85
55317;BME280;41178;48.956;8.130;2023-04-01T05:33:16;98369.53;;;10.08;52.85
55317;BME280;41178;48.956;8.130;2023-04-01T05:38:17;98385.13;;;10.43;52.31
55317;BME280;41178;48.956;8.130;2023-04-01T05:43:19;98351.06;;;9.61;53.58
55317;BME280;41178;48.956;8.130;2023-04-01T05:48:21;98337.81;;;9.41;53.57
55317;BME280;41178;48.956;8.130;2023-04-01T05:53:22;98377.72;;;9.74;54.10
55317;BME280;41178;48.956;8.130;2023-04-01T05:58:24;98275.84;;;8.47;55.34
55317;BME280;41178;48.956;8.130;2023-04-01T06:03:25;98389.44;;;10.12;53.91
55317;BME280;41178;48.956;8.130;2023-04-01T06:08:30;98376.03;;;10.19;52.92
55317;BME280;41178;48.956;8.130;2023-04-01T06:24:19;98374.91;;;9.56;56.42
55317;BME280;41178;48.956;8.130;2023-04-01T06:35:27;98406.25;;;10.51;53.50
55317;BME280;41178;48.956;8.130;2023-04-01T06:41:19;98413.88;;;10.73;53.11
55317;BME280;41178;48.956;8.130;2023-04-01T06:46:06;98429.84;;;10.61;53.93
55317;BME280;41178;48.956;8.130;2023-04-01T06:56:24;98410.25;;;10.67;52.69
55317;BME280;41178;48.956;8.130;2023-04-01T07:01:52;98411.59;;;9.87;54.81
55317;BME280;41178;48.956;8.130;2023-04-01T07:07:52;98361.72;;;9.68;54.26
55317;BME280;41178;48.956;8.130;2023-04-01T07:12:50;98428.13;;;10.73;53.77
55317;BME280;41178;48.956;8.130;2023-04-01T07:17:59;98269.91;;;8.38;57.03
55317;BME280;41178;48.956;8.130;2023-04-01T07:23:15;98441.72;;;10.08;56.48
55317;BME280;41178;48.956;8.130;2023-04-01T07:28:18;98391.19;;;9.41;55.94
55317;BME280;41178;48.956;8.130;2023-04-01T07:33:27;98188.34;;;7.44;60.07
55317;BME280;41178;48.956;8.130;2023-04-01T07:43:49;98401.59;;;9.63;56.40
55317;BME280;41178;48.956;8.130;2023-04-01T07:49:08;98414.06;;;9.24;58.13
55317;BME280;41178;48.956;8.130;2023-04-01T07:59:54;98412.94;;;10.03;55.79
55317;BME280;41178;48.956;8.130;2023-04-01T08:21:01;98541.56;;;11.48;54.52
55317;BME280;41178;48.956;8.130;2023-04-01T08:26:34;98463.75;;;9.96;57.73
55317;BME280;41178;48.956;8.130;2023-04-01T08:36:46;98555.69;;;11.36;55.42
55317;BME280;41178;48.956;8.130;2023-04-01T09:03:35;98485.41;;;9.68;58.85
55317;BME280;41178;48.956;8.130;2023-04-01T09:08:59;98526.78;;;10.56;56.62
55317;BME280;41178;48.956;8.130;2023-04-01T09:19:12;98589.47;;;11.37;55.36
55317;BME280;41178;48.956;8.130;2023-04-01T09:34:55;98532.00;;;10.38;56.92
55317;BME280;41178;48.956;8.130;2023-04-01T09:40:17;98559.47;;;10.65;56.36
55317;BME280;41178;48.956;8.130;2023-04-01T09:50:49;98538.25;;;10.31;56.50
55317;BME280;41178;48.956;8.130;2023-04-01T10:01:41;98687.84;;;12.24;53.54
55317;BME280;41178;48.956;8.130;2023-04-01T10:07:14;98635.56;;;11.71;53.40
55317;BME280;41178;48.956;8.130;2023-04-01T10:23:05;98551.53;;;10.45;55.55
55317;BME280;41178;48.956;8.130;2023-04-01T10:28:21;98622.59;;;11.43;54.35
55317;BME280;41178;48.956;8.130;2023-04-01T11:23:37;98641.56;;;9.66;60.54
55317;BME280;41178;48.956;8.130;2023-04-01T11:29:00;98651.44;;;9.45;61.08
55317;BME280;41178;48.956;8.130;2023-04-01T11:39:40;98706.41;;;10.60;57.56
55317;BME280;41178;48.956;8.130;2023-04-01T11:50:17;98749.88;;;11.14;55.49
55317;BME280;41178;48.956;8.130;2023-04-01T11:56:31;98679.59;;;10.08;57.35
55317;BME280;41178;48.956;8.130;2023-04-01T12:27:49;98801.19;;;12.13;53.78
55317;BME280;41178;48.956;8.130;2023-04-01T13:11:18;98781.06;;;12.29;52.78
55317;BME280;41178;48.956;8.130;2023-04-01T13:38:05;98772.81;;;12.05;52.28
55317;BME280;41178;48.956;8.130;2023-04-01T13:43:24;98802.19;;;12.69;50.71
55317;BME280;41178;48.956;8.130;2023-04-01T13:48:36;98772.59;;;12.07;52.28
55317;BME280;41178;48.956;8.130;2023-04-01T14:20:32;98649.59;;;10.58;55.57
55317;BME280;41178;48.956;8.130;2023-04-01T14:41:57;98707.31;;;11.37;54.88
55317;BME280;41178;48.956;8.130;2023-04-01T14:52:40;98790.53;;;12.57;53.19
55317;BME280;41178;48.956;8.130;2023-04-01T14:57:58;98720.91;;;11.74;54.46
55317;BME280;41178;48.956;8.130;2023-04-01T15:03:36;98834.50;;;13.18;52.17
55317;BME280;41178;48.956;8.130;2023-04-01T15:24:24;98796.81;;;13.85;50.74
55317;BME280;41178;48.956;8.130;2023-04-01T15:35:03;98804.31;;;13.95;49.93
55317;BME280;41178;48.956;8.130;2023-04-01T15:40:20;98783.44;;;13.66;50.14
55317;BME280;41178;48.956;8.130;2023-04-01T16:28:10;98624.00;;;12.14;52.75
55317;BME280;41178;48.956;8.130;2023-04-01T16:44:13;98657.91;;;12.27;50.81
55317;BME280;41178;48.956;8.130;2023-04-01T16:49:37;98630.50;;;11.56;51.07
55317;BME280;41178;48.956;8.130;2023-04-01T16:54:55;98720.75;;;12.93;49.31
55317;BME280;41178;48.956;8.130;2023-04-01T17:00:16;98685.56;;;12.46;49.16
55317;BME280;41178;48.956;8.130;2023-04-01T17:05:21;98724.03;;;13.26;48.35
55317;BME280;41178;48.956;8.130;2023-04-01T17:48:03;98753.34;;;13.46;48.45
55317;BME280;41178;48.956;8.130;2023-04-01T17:59:10;98720.59;;;13.37;48.15
55317;BME280;41178;48.956;8.130;2023-04-01T18:04:40;98776.94;;;13.74;47.73
55317;BME280;41178;48.956;8.130;2023-04-01T18:25:37;98678.44;;;11.71;52.51
55317;BME280;41178;48.956;8.130;2023-04-01T18:30:43;98650.00;;;11.70;50.87
55317;BME280;41178;48.956;8.130;2023-04-01T18:35:51;98666.44;;;11.99;50.31
55317;BME280;41178;48.956;8.130;2023-04-01T18:46:27;98690.78;;;12.41;49.55
55317;BME280;41178;48.956;8.130;2023-04-01T18:51:43;98710.44;;;11.91;51.30
55317;BME280;41178;48.956;8.130;2023-04-01T18:56:47;98647.47;;;10.80;52.63
55317;BME280;41178;48.956;8.130;2023-04-01T19:07:00;98734.44;;;11.48;51.98
55317;BME280;41178;48.956;8.130;2023-04-01T19:23:07;98768.84;;;12.77;49.06
55317;BME280;41178;48.956;8.130;2023-04-01T19:28:27;98777.00;;;12.19;50.56
55317;BME280;41178;48.956;8.130;2023-04-01T19:34:00;98756.88;;;11.85;50.24
55317;BME280;41178;48.956;8.130;2023-04-01T19:39:33;98754.97;;;11.92;50.19
55317;BME280;41178;48.956;8.130;2023-04-01T19:55:50;98797.38;;;12.02;50.93
55317;BME280;41178;48.956;8.130;2023-04-01T20:00:58;98806.09;;;12.48;50.17
55317;BME280;41178;48.956;8.130;2023-04-01T20:22:23;98800.19;;;12.14;49.71
55317;BME280;41178;48.956;8.130;2023-04-01T20:27:33;98828.72;;;12.77;48.71
55317;BME280;41178;48.956;8.130;2023-04-01T20:43:43;98836.72;;;12.84;48.95
55317;BME280;41178;48.956;8.130;2023-04-01T20:54:20;98809.84;;;12.65;48.51
55317;BME280;41178;48.956;8.130;2023-04-01T21:15:31;98812.53;;;10.99;52.10
55317;BME280;41178;48.956;8.130;2023-04-01T21:21:34;98799.16;;;10.99;52.21
55317;BME280;41178;48.956;8.130;2023-04-01T21:36:58;98831.56;;;12.64;48.75
55317;BME280;41178;48.956;8.130;2023-04-01T22:08:49;98888.03;;;12.50;50.03
55317;BME280;41178;48.956;8.130;2023-04-01T22:19:17;98908.22;;;13.22;47.70
55317;BME280;41178;48.956;8.130;2023-04-01T22:29:45;98917.25;;;13.27;47.90
55317;BME280;41178;48.956;8.130;2023-04-01T22:34:57;98815.38;;;11.63;49.33
55317;BME280;41178;48.956;8.130;2023-04-01T22:46:10;98905.75;;;12.77;49.29
55317;BME280;41178;48.956;8.130;2023-04-01T22:51:11;98901.41;;;12.57;49.28
55317;BME280;41178;48.956;8.130;2023-04-01T22:56:19;98857.72;;;12.11;49.49
55317;BME280;41178;48.956;8.130;2023-04-01T23:01:26;98905.25;;;12.86;48.10
55317;BME280;41178;48.956;8.130;2023-04-01T23:06:35;98893.56;;;11.92;50.37
55317;BME280;41178;48.956;8.130;2023-04-01T23:38:23;98935.63;;;12.62;50.39
55317;BME280;41178;48.956;8.130;2023-04-01T23:43:31;98844.56;;;11.26;51.21
55317;BME280;41178;48.956;8.130;2023-04-01T23:48:37;98888.28;;;11.00;53.74
55317;BME280;41178;48.956;8.130;2023-04-01T23:53:44;98731.13;;;9.62;54.32
55317;BME280;41178;48.956;8.130;2023-04-01T23:58:49;98889.97;;;10.94;52.94
